<?xml version='1.0' encoding='UTF-8'?>
<gpx version="1.1" creator="https://www.komoot.de" xmlns="http://www.topografix.com/GPX/1/1" xmlns:xsi="http://www.w3.org/2001/XMLSchema-instance" xsi:schemaLocation="http://www.topografix.com/GPX/1/1 http://www.topografix.com/GPX/1/1/gpx.xsd">
  <metadata>
    <name>Landsberg / Lech am schönen Lech erleben 12 km Strecke</name>
    <author>
      <link href="https://www.komoot.de">
        <text>komoot</text>
        <type>text/html</type>
      </link>
    </author>
  </metadata>
  <trk>
    <name>Landsberg / Lech am schönen Lech erleben 12 km Strecke</name>
    <trkseg>
      <trkpt lat="48.059162" lon="10.867868">
        <ele>595.321002</ele>
        <time>2022-09-24T14:22:09.850Z</time>
      </trkpt>
      <trkpt lat="48.058980" lon="10.867933">
        <ele>595.321002</ele>
        <time>2022-09-24T14:22:29.025Z</time>
      </trkpt>
      <trkpt lat="48.058875" lon="10.867823">
        <ele>595.321002</ele>
        <time>2022-09-24T14:22:42.289Z</time>
      </trkpt>
      <trkpt lat="48.058490" lon="10.867995">
        <ele>595.321002</ele>
        <time>2022-09-24T14:23:23.836Z</time>
      </trkpt>
      <trkpt lat="48.058092" lon="10.868133">
        <ele>595.412985</ele>
        <time>2022-09-24T14:24:06.307Z</time>
      </trkpt>
      <trkpt lat="48.057331" lon="10.868415">
        <ele>595.731629</ele>
        <time>2022-09-24T14:25:26.872Z</time>
      </trkpt>
      <trkpt lat="48.057182" lon="10.868610">
        <ele>595.812088</ele>
        <time>2022-09-24T14:25:46.842Z</time>
      </trkpt>
      <trkpt lat="48.057126" lon="10.869058">
        <ele>595.935900</ele>
        <time>2022-09-24T14:26:17.488Z</time>
      </trkpt>
      <trkpt lat="48.057154" lon="10.869239">
        <ele>595.986370</ele>
        <time>2022-09-24T14:26:30.030Z</time>
      </trkpt>
      <trkpt lat="48.057170" lon="10.869361">
        <ele>596.020144</ele>
        <time>2022-09-24T14:26:38.451Z</time>
      </trkpt>
      <trkpt lat="48.057252" lon="10.870081">
        <ele>595.603799</ele>
        <time>2022-09-24T14:27:27.713Z</time>
      </trkpt>
      <trkpt lat="48.057249" lon="10.870206">
        <ele>595.512335</ele>
        <time>2022-09-24T14:27:36.242Z</time>
      </trkpt>
      <trkpt lat="48.057017" lon="10.871085">
        <ele>594.821273</ele>
        <time>2022-09-24T14:28:40.807Z</time>
      </trkpt>
      <trkpt lat="48.056984" lon="10.871551">
        <ele>594.478606</ele>
        <time>2022-09-24T14:29:13.208Z</time>
      </trkpt>
      <trkpt lat="48.057041" lon="10.871470">
        <ele>594.392599</ele>
        <time>2022-09-24T14:29:21.199Z</time>
      </trkpt>
      <trkpt lat="48.057199" lon="10.871160">
        <ele>594.107527</ele>
        <time>2022-09-24T14:29:48.417Z</time>
      </trkpt>
      <trkpt lat="48.057483" lon="10.870603">
        <ele>593.236514</ele>
        <time>2022-09-24T14:30:36.884Z</time>
      </trkpt>
      <trkpt lat="48.057789" lon="10.870158">
        <ele>592.427167</ele>
        <time>2022-09-24T14:31:21.338Z</time>
      </trkpt>
      <trkpt lat="48.057944" lon="10.869903">
        <ele>591.990230</ele>
        <time>2022-09-24T14:31:45.454Z</time>
      </trkpt>
      <trkpt lat="48.058113" lon="10.869679">
        <ele>591.562015</ele>
        <time>2022-09-24T14:32:09.022Z</time>
      </trkpt>
      <trkpt lat="48.058244" lon="10.869561">
        <ele>591.272005</ele>
        <time>2022-09-24T14:32:25.016Z</time>
      </trkpt>
      <trkpt lat="48.059212" lon="10.868927">
        <ele>589.683545</ele>
        <time>2022-09-24T14:34:14.750Z</time>
      </trkpt>
      <trkpt lat="48.059604" lon="10.868746">
        <ele>589.135658</ele>
        <time>2022-09-24T14:34:56.951Z</time>
      </trkpt>
      <trkpt lat="48.060156" lon="10.868706">
        <ele>588.397585</ele>
        <time>2022-09-24T14:35:53.237Z</time>
      </trkpt>
      <trkpt lat="48.061175" lon="10.868170">
        <ele>587.981126</ele>
        <time>2022-09-24T14:37:42.280Z</time>
      </trkpt>
      <trkpt lat="48.062616" lon="10.867622">
        <ele>587.596565</ele>
        <time>2022-09-24T14:40:11.380Z</time>
      </trkpt>
      <trkpt lat="48.064054" lon="10.867396">
        <ele>587.458344</ele>
        <time>2022-09-24T14:42:36.964Z</time>
      </trkpt>
      <trkpt lat="48.064938" lon="10.867378">
        <ele>587.747164</ele>
        <time>2022-09-24T14:44:05.742Z</time>
      </trkpt>
      <trkpt lat="48.065295" lon="10.867498">
        <ele>587.866698</ele>
        <time>2022-09-24T14:44:43.261Z</time>
      </trkpt>
      <trkpt lat="48.065681" lon="10.867529">
        <ele>588.221078</ele>
        <time>2022-09-24T14:45:23.418Z</time>
      </trkpt>
      <trkpt lat="48.065696" lon="10.867531">
        <ele>588.247667</ele>
        <time>2022-09-24T14:45:24.902Z</time>
      </trkpt>
      <trkpt lat="48.066246" lon="10.867576">
        <ele>589.220184</ele>
        <time>2022-09-24T14:46:22.886Z</time>
      </trkpt>
      <trkpt lat="48.066344" lon="10.867583">
        <ele>589.393408</ele>
        <time>2022-09-24T14:46:33.428Z</time>
      </trkpt>
      <trkpt lat="48.069154" lon="10.867773">
        <ele>594.791355</ele>
        <time>2022-09-24T14:51:36.465Z</time>
      </trkpt>
      <trkpt lat="48.069516" lon="10.868620">
        <ele>594.954898</ele>
        <time>2022-09-24T14:52:46.492Z</time>
      </trkpt>
      <trkpt lat="48.069686" lon="10.868933">
        <ele>595.020506</ele>
        <time>2022-09-24T14:53:13.913Z</time>
      </trkpt>
      <trkpt lat="48.069836" lon="10.869211">
        <ele>595.078627</ele>
        <time>2022-09-24T14:53:37.907Z</time>
      </trkpt>
      <trkpt lat="48.069943" lon="10.869786">
        <ele>595.175714</ele>
        <time>2022-09-24T14:54:18.210Z</time>
      </trkpt>
      <trkpt lat="48.068696" lon="10.870663">
        <ele>591.922995</ele>
        <time>2022-09-24T14:56:41.808Z</time>
      </trkpt>
      <trkpt lat="48.068688" lon="10.870625">
        <ele>591.849623</ele>
        <time>2022-09-24T14:56:44.563Z</time>
      </trkpt>
      <trkpt lat="48.068613" lon="10.870412">
        <ele>591.406232</ele>
        <time>2022-09-24T14:57:02.172Z</time>
      </trkpt>
      <trkpt lat="48.068472" lon="10.870591">
        <ele>590.896655</ele>
        <time>2022-09-24T14:57:22.394Z</time>
      </trkpt>
      <trkpt lat="48.068234" lon="10.870961">
        <ele>589.841964</ele>
        <time>2022-09-24T14:58:00.238Z</time>
      </trkpt>
      <trkpt lat="48.068234" lon="10.870961">
        <ele>589.841964</ele>
        <time>2022-09-24T14:58:00.238Z</time>
      </trkpt>
      <trkpt lat="48.068256" lon="10.871046">
        <ele>589.615524</ele>
        <time>2022-09-24T14:58:06.808Z</time>
      </trkpt>
      <trkpt lat="48.068006" lon="10.871113">
        <ele>588.671372</ele>
        <time>2022-09-24T14:58:34.706Z</time>
      </trkpt>
      <trkpt lat="48.067996" lon="10.871130">
        <ele>588.615110</ele>
        <time>2022-09-24T14:58:36.330Z</time>
      </trkpt>
      <trkpt lat="48.067785" lon="10.871036">
        <ele>587.796705</ele>
        <time>2022-09-24T14:59:00.313Z</time>
      </trkpt>
      <trkpt lat="48.067482" lon="10.871005">
        <ele>586.667684</ele>
        <time>2022-09-24T14:59:33.028Z</time>
      </trkpt>
      <trkpt lat="48.067212" lon="10.871073">
        <ele>585.649854</ele>
        <time>2022-09-24T15:00:02.654Z</time>
      </trkpt>
      <trkpt lat="48.067130" lon="10.871245">
        <ele>585.124976</ele>
        <time>2022-09-24T15:00:17.907Z</time>
      </trkpt>
      <trkpt lat="48.067019" lon="10.871313">
        <ele>584.679098</ele>
        <time>2022-09-24T15:00:30.865Z</time>
      </trkpt>
      <trkpt lat="48.066175" lon="10.871219">
        <ele>582.951983</ele>
        <time>2022-09-24T15:01:59.300Z</time>
      </trkpt>
      <trkpt lat="48.065898" lon="10.871117">
        <ele>582.627885</ele>
        <time>2022-09-24T15:02:28.651Z</time>
      </trkpt>
      <trkpt lat="48.065575" lon="10.871842">
        <ele>581.966316</ele>
        <time>2022-09-24T15:03:27.045Z</time>
      </trkpt>
      <trkpt lat="48.065381" lon="10.872659">
        <ele>581.366572</ele>
        <time>2022-09-24T15:04:25.747Z</time>
      </trkpt>
      <trkpt lat="48.065362" lon="10.872665">
        <ele>581.350250</ele>
        <time>2022-09-24T15:04:27.742Z</time>
      </trkpt>
      <trkpt lat="48.065536" lon="10.873792">
        <ele>580.700542</ele>
        <time>2022-09-24T15:05:46.713Z</time>
      </trkpt>
      <trkpt lat="48.065554" lon="10.873915">
        <ele>580.629816</ele>
        <time>2022-09-24T15:05:55.397Z</time>
      </trkpt>
      <trkpt lat="48.065605" lon="10.874241">
        <ele>580.441753</ele>
        <time>2022-09-24T15:06:18.108Z</time>
      </trkpt>
      <trkpt lat="48.065661" lon="10.874665">
        <ele>580.198987</ele>
        <time>2022-09-24T15:06:47.478Z</time>
      </trkpt>
      <trkpt lat="48.065706" lon="10.875007">
        <ele>580.016121</ele>
        <time>2022-09-24T15:07:11.142Z</time>
      </trkpt>
      <trkpt lat="48.065724" lon="10.875105">
        <ele>579.999793</ele>
        <time>2022-09-24T15:07:18.138Z</time>
      </trkpt>
      <trkpt lat="48.064882" lon="10.875520">
        <ele>579.786678</ele>
        <time>2022-09-24T15:08:48.087Z</time>
      </trkpt>
      <trkpt lat="48.063845" lon="10.875932">
        <ele>579.605040</ele>
        <time>2022-09-24T15:10:36.755Z</time>
      </trkpt>
      <trkpt lat="48.063760" lon="10.875976">
        <ele>579.610840</ele>
        <time>2022-09-24T15:10:45.896Z</time>
      </trkpt>
      <trkpt lat="48.063666" lon="10.876021">
        <ele>579.617205</ele>
        <time>2022-09-24T15:10:55.892Z</time>
      </trkpt>
      <trkpt lat="48.062296" lon="10.876478">
        <ele>579.735296</ele>
        <time>2022-09-24T15:13:16.571Z</time>
      </trkpt>
      <trkpt lat="48.061989" lon="10.876592">
        <ele>579.954557</ele>
        <time>2022-09-24T15:13:48.233Z</time>
      </trkpt>
      <trkpt lat="48.061706" lon="10.876835">
        <ele>580.180733</ele>
        <time>2022-09-24T15:14:21.069Z</time>
      </trkpt>
      <trkpt lat="48.061488" lon="10.877003">
        <ele>580.350711</ele>
        <time>2022-09-24T15:14:46.058Z</time>
      </trkpt>
      <trkpt lat="48.059167" lon="10.877971">
        <ele>583.242794</ele>
        <time>2022-09-24T15:18:58.546Z</time>
      </trkpt>
      <trkpt lat="48.058659" lon="10.878128">
        <ele>584.083066</ele>
        <time>2022-09-24T15:19:54.186Z</time>
      </trkpt>
      <trkpt lat="48.057330" lon="10.878317">
        <ele>586.420812</ele>
        <time>2022-09-24T15:22:17.303Z</time>
      </trkpt>
      <trkpt lat="48.056770" lon="10.878061">
        <ele>586.588166</ele>
        <time>2022-09-24T15:23:18.431Z</time>
      </trkpt>
      <trkpt lat="48.055944" lon="10.877257">
        <ele>586.114761</ele>
        <time>2022-09-24T15:24:58.734Z</time>
      </trkpt>
      <trkpt lat="48.055699" lon="10.877020">
        <ele>585.974601</ele>
        <time>2022-09-24T15:25:28.792Z</time>
      </trkpt>
      <trkpt lat="48.055291" lon="10.876484">
        <ele>585.449457</ele>
        <time>2022-09-24T15:26:25.052Z</time>
      </trkpt>
      <trkpt lat="48.055233" lon="10.876351">
        <ele>585.329367</ele>
        <time>2022-09-24T15:26:36.092Z</time>
      </trkpt>
      <trkpt lat="48.055117" lon="10.876255">
        <ele>585.179388</ele>
        <time>2022-09-24T15:26:49.646Z</time>
      </trkpt>
      <trkpt lat="48.055111" lon="10.876032">
        <ele>585.010614</ele>
        <time>2022-09-24T15:27:05.138Z</time>
      </trkpt>
      <trkpt lat="48.055093" lon="10.875980">
        <ele>584.966331</ele>
        <time>2022-09-24T15:27:09.154Z</time>
      </trkpt>
      <trkpt lat="48.055061" lon="10.876019">
        <ele>584.919635</ele>
        <time>2022-09-24T15:27:13.413Z</time>
      </trkpt>
      <trkpt lat="48.054885" lon="10.875697">
        <ele>584.605084</ele>
        <time>2022-09-24T15:27:42.142Z</time>
      </trkpt>
      <trkpt lat="48.054616" lon="10.874703">
        <ele>583.865001</ele>
        <time>2022-09-24T15:28:55.219Z</time>
      </trkpt>
      <trkpt lat="48.054411" lon="10.874098">
        <ele>583.807839</ele>
        <time>2022-09-24T15:29:41.347Z</time>
      </trkpt>
      <trkpt lat="48.054182" lon="10.873615">
        <ele>583.757935</ele>
        <time>2022-09-24T15:30:21.340Z</time>
      </trkpt>
      <trkpt lat="48.054056" lon="10.873456">
        <ele>583.737153</ele>
        <time>2022-09-24T15:30:37.941Z</time>
      </trkpt>
      <trkpt lat="48.053868" lon="10.873217">
        <ele>583.706049</ele>
        <time>2022-09-24T15:31:02.739Z</time>
      </trkpt>
      <trkpt lat="48.053829" lon="10.873148">
        <ele>583.698434</ele>
        <time>2022-09-24T15:31:08.824Z</time>
      </trkpt>
      <trkpt lat="48.053676" lon="10.872757">
        <ele>583.660252</ele>
        <time>2022-09-24T15:31:39.173Z</time>
      </trkpt>
      <trkpt lat="48.053659" lon="10.872668">
        <ele>583.652451</ele>
        <time>2022-09-24T15:31:45.331Z</time>
      </trkpt>
      <trkpt lat="48.053701" lon="10.872578">
        <ele>583.639792</ele>
        <time>2022-09-24T15:31:52.780Z</time>
      </trkpt>
      <trkpt lat="48.053701" lon="10.872578">
        <ele>583.639792</ele>
        <time>2022-09-24T15:31:52.852Z</time>
      </trkpt>
      <trkpt lat="48.053593" lon="10.872429">
        <ele>583.605169</ele>
        <time>2022-09-24T15:32:07.654Z</time>
      </trkpt>
      <trkpt lat="48.053446" lon="10.872220">
        <ele>583.557375</ele>
        <time>2022-09-24T15:32:28.090Z</time>
      </trkpt>
      <trkpt lat="48.053348" lon="10.872218">
        <ele>583.534277</ele>
        <time>2022-09-24T15:32:38.007Z</time>
      </trkpt>
      <trkpt lat="48.053061" lon="10.872084">
        <ele>583.463422</ele>
        <time>2022-09-24T15:33:08.387Z</time>
      </trkpt>
      <trkpt lat="48.052997" lon="10.872056">
        <ele>583.447707</ele>
        <time>2022-09-24T15:33:15.120Z</time>
      </trkpt>
      <trkpt lat="48.052985" lon="10.872043">
        <ele>583.444216</ele>
        <time>2022-09-24T15:33:16.677Z</time>
      </trkpt>
      <trkpt lat="48.052499" lon="10.871460">
        <ele>583.297404</ele>
        <time>2022-09-24T15:34:19.292Z</time>
      </trkpt>
      <trkpt lat="48.051823" lon="10.870881">
        <ele>583.341085</ele>
        <time>2022-09-24T15:35:37.491Z</time>
      </trkpt>
      <trkpt lat="48.051632" lon="10.870791">
        <ele>583.391922</ele>
        <time>2022-09-24T15:35:58.083Z</time>
      </trkpt>
      <trkpt lat="48.051522" lon="10.870755">
        <ele>583.420508</ele>
        <time>2022-09-24T15:36:09.461Z</time>
      </trkpt>
      <trkpt lat="48.051216" lon="10.870850">
        <ele>583.499845</ele>
        <time>2022-09-24T15:36:41.179Z</time>
      </trkpt>
      <trkpt lat="48.050993" lon="10.870944">
        <ele>583.558662</ele>
        <time>2022-09-24T15:37:04.548Z</time>
      </trkpt>
      <trkpt lat="48.050353" lon="10.871171">
        <ele>583.740725</ele>
        <time>2022-09-24T15:38:11.482Z</time>
      </trkpt>
      <trkpt lat="48.050236" lon="10.871267">
        <ele>583.785761</ele>
        <time>2022-09-24T15:38:25.101Z</time>
      </trkpt>
      <trkpt lat="48.049964" lon="10.871514">
        <ele>583.893148</ele>
        <time>2022-09-24T15:38:57.145Z</time>
      </trkpt>
      <trkpt lat="48.049953" lon="10.871524">
        <ele>583.897492</ele>
        <time>2022-09-24T15:38:58.406Z</time>
      </trkpt>
      <trkpt lat="48.049931" lon="10.871528">
        <ele>583.904971</ele>
        <time>2022-09-24T15:39:00.720Z</time>
      </trkpt>
      <trkpt lat="48.049886" lon="10.871516">
        <ele>583.920398</ele>
        <time>2022-09-24T15:39:05.265Z</time>
      </trkpt>
      <trkpt lat="48.049847" lon="10.871522">
        <ele>583.933629</ele>
        <time>2022-09-24T15:39:09.241Z</time>
      </trkpt>
      <trkpt lat="48.049504" lon="10.871745">
        <ele>584.059849</ele>
        <time>2022-09-24T15:39:46.850Z</time>
      </trkpt>
      <trkpt lat="48.049302" lon="10.871788">
        <ele>584.128708</ele>
        <time>2022-09-24T15:40:07.388Z</time>
      </trkpt>
      <trkpt lat="48.049234" lon="10.871860">
        <ele>584.156825</ele>
        <time>2022-09-24T15:40:15.735Z</time>
      </trkpt>
      <trkpt lat="48.049096" lon="10.872049">
        <ele>584.219970</ele>
        <time>2022-09-24T15:40:34.824Z</time>
      </trkpt>
      <trkpt lat="48.048900" lon="10.872266">
        <ele>584.363150</ele>
        <time>2022-09-24T15:40:59.579Z</time>
      </trkpt>
      <trkpt lat="48.048673" lon="10.872564">
        <ele>584.868191</ele>
        <time>2022-09-24T15:41:30.620Z</time>
      </trkpt>
      <trkpt lat="48.048296" lon="10.872979">
        <ele>585.650919</ele>
        <time>2022-09-24T15:42:19.279Z</time>
      </trkpt>
      <trkpt lat="48.048130" lon="10.873160">
        <ele>585.994425</ele>
        <time>2022-09-24T15:42:40.984Z</time>
      </trkpt>
      <trkpt lat="48.047827" lon="10.873641">
        <ele>586.733246</ele>
        <time>2022-09-24T15:43:28.138Z</time>
      </trkpt>
      <trkpt lat="48.047580" lon="10.873697">
        <ele>587.151003</ele>
        <time>2022-09-24T15:43:55.220Z</time>
      </trkpt>
      <trkpt lat="48.047344" lon="10.874115">
        <ele>588.679423</ele>
        <time>2022-09-24T15:44:35.850Z</time>
      </trkpt>
      <trkpt lat="48.047333" lon="10.874145">
        <ele>588.792598</ele>
        <time>2022-09-24T15:44:38.460Z</time>
      </trkpt>
      <trkpt lat="48.047298" lon="10.874244">
        <ele>589.163026</ele>
        <time>2022-09-24T15:44:46.897Z</time>
      </trkpt>
      <trkpt lat="48.047301" lon="10.874260">
        <ele>589.217990</ele>
        <time>2022-09-24T15:44:48.161Z</time>
      </trkpt>
      <trkpt lat="48.047713" lon="10.875699">
        <ele>594.395829</ele>
        <time>2022-09-24T15:46:51.266Z</time>
      </trkpt>
      <trkpt lat="48.047748" lon="10.875822">
        <ele>594.837989</ele>
        <time>2022-09-24T15:47:02.140Z</time>
      </trkpt>
      <trkpt lat="48.047707" lon="10.875841">
        <ele>595.050358</ele>
        <time>2022-09-24T15:47:07.533Z</time>
      </trkpt>
      <trkpt lat="48.047753" lon="10.875960">
        <ele>595.505030</ele>
        <time>2022-09-24T15:47:19.015Z</time>
      </trkpt>
      <trkpt lat="48.047804" lon="10.876065">
        <ele>595.934321</ele>
        <time>2022-09-24T15:47:29.492Z</time>
      </trkpt>
      <trkpt lat="48.047506" lon="10.876285">
        <ele>597.725570</ele>
        <time>2022-09-24T15:48:10.867Z</time>
      </trkpt>
      <trkpt lat="48.047289" lon="10.876369">
        <ele>598.952357</ele>
        <time>2022-09-24T15:48:39.111Z</time>
      </trkpt>
      <trkpt lat="48.047086" lon="10.876471">
        <ele>600.124403</ele>
        <time>2022-09-24T15:49:05.724Z</time>
      </trkpt>
      <trkpt lat="48.046981" lon="10.876520">
        <ele>600.726396</ele>
        <time>2022-09-24T15:49:19.254Z</time>
      </trkpt>
      <trkpt lat="48.046948" lon="10.876534">
        <ele>600.914132</ele>
        <time>2022-09-24T15:49:23.517Z</time>
      </trkpt>
      <trkpt lat="48.046886" lon="10.876555">
        <ele>601.262055</ele>
        <time>2022-09-24T15:49:31.594Z</time>
      </trkpt>
      <trkpt lat="48.046695" lon="10.876442">
        <ele>602.386213</ele>
        <time>2022-09-24T15:49:55.927Z</time>
      </trkpt>
      <trkpt lat="48.046443" lon="10.876568">
        <ele>603.840447</ele>
        <time>2022-09-24T15:50:27.286Z</time>
      </trkpt>
      <trkpt lat="48.046420" lon="10.876574">
        <ele>603.968228</ele>
        <time>2022-09-24T15:50:29.924Z</time>
      </trkpt>
      <trkpt lat="48.046409" lon="10.876577">
        <ele>604.029425</ele>
        <time>2022-09-24T15:50:31.251Z</time>
      </trkpt>
      <trkpt lat="48.046211" lon="10.876601">
        <ele>605.116652</ele>
        <time>2022-09-24T15:50:53.781Z</time>
      </trkpt>
      <trkpt lat="48.045803" lon="10.876822">
        <ele>606.078926</ele>
        <time>2022-09-24T15:51:41.495Z</time>
      </trkpt>
      <trkpt lat="48.045344" lon="10.876880">
        <ele>606.149920</ele>
        <time>2022-09-24T15:52:29.475Z</time>
      </trkpt>
      <trkpt lat="48.045126" lon="10.876943">
        <ele>606.184140</ele>
        <time>2022-09-24T15:52:52.064Z</time>
      </trkpt>
      <trkpt lat="48.044652" lon="10.877109">
        <ele>606.259169</ele>
        <time>2022-09-24T15:53:41.392Z</time>
      </trkpt>
      <trkpt lat="48.044089" lon="10.877160">
        <ele>605.828210</ele>
        <time>2022-09-24T15:54:40.837Z</time>
      </trkpt>
      <trkpt lat="48.043381" lon="10.877055">
        <ele>604.099781</ele>
        <time>2022-09-24T15:55:57.689Z</time>
      </trkpt>
      <trkpt lat="48.043029" lon="10.877000">
        <ele>603.239989</ele>
        <time>2022-09-24T15:56:34.635Z</time>
      </trkpt>
      <trkpt lat="48.042593" lon="10.876876">
        <ele>602.161805</ele>
        <time>2022-09-24T15:57:19.538Z</time>
      </trkpt>
      <trkpt lat="48.042147" lon="10.876615">
        <ele>601.254808</ele>
        <time>2022-09-24T15:58:09.396Z</time>
      </trkpt>
      <trkpt lat="48.041970" lon="10.876511">
        <ele>600.917903</ele>
        <time>2022-09-24T15:58:29.828Z</time>
      </trkpt>
      <trkpt lat="48.041930" lon="10.876681">
        <ele>600.704435</ele>
        <time>2022-09-24T15:58:42.338Z</time>
      </trkpt>
      <trkpt lat="48.041886" lon="10.876853">
        <ele>600.486301</ele>
        <time>2022-09-24T15:58:54.750Z</time>
      </trkpt>
      <trkpt lat="48.041792" lon="10.877107">
        <ele>600.142427</ele>
        <time>2022-09-24T15:59:15.808Z</time>
      </trkpt>
      <trkpt lat="48.041677" lon="10.877275">
        <ele>599.857634</ele>
        <time>2022-09-24T15:59:32.449Z</time>
      </trkpt>
      <trkpt lat="48.041677" lon="10.877275">
        <ele>599.857634</ele>
        <time>2022-09-24T15:59:33.481Z</time>
      </trkpt>
      <trkpt lat="48.041366" lon="10.877228">
        <ele>599.303855</ele>
        <time>2022-09-24T16:00:06.217Z</time>
      </trkpt>
      <trkpt lat="48.041247" lon="10.877099">
        <ele>599.043482</ele>
        <time>2022-09-24T16:00:21.615Z</time>
      </trkpt>
      <trkpt lat="48.041146" lon="10.876989">
        <ele>598.822136</ele>
        <time>2022-09-24T16:00:34.207Z</time>
      </trkpt>
      <trkpt lat="48.041070" lon="10.876924">
        <ele>598.722246</ele>
        <time>2022-09-24T16:00:43.108Z</time>
      </trkpt>
      <trkpt lat="48.040923" lon="10.876798">
        <ele>598.602054</ele>
        <time>2022-09-24T16:01:00.722Z</time>
      </trkpt>
      <trkpt lat="48.040786" lon="10.876666">
        <ele>598.486447</ele>
        <time>2022-09-24T16:01:17.412Z</time>
      </trkpt>
      <trkpt lat="48.039367" lon="10.875462">
        <ele>597.483153</ele>
        <time>2022-09-24T16:04:03.254Z</time>
      </trkpt>
      <trkpt lat="48.038908" lon="10.875370">
        <ele>597.483119</ele>
        <time>2022-09-24T16:04:49.964Z</time>
      </trkpt>
      <trkpt lat="48.037866" lon="10.874369">
        <ele>597.455833</ele>
        <time>2022-09-24T16:06:54.948Z</time>
      </trkpt>
      <trkpt lat="48.037627" lon="10.874268">
        <ele>597.399564</ele>
        <time>2022-09-24T16:07:19.998Z</time>
      </trkpt>
      <trkpt lat="48.037383" lon="10.874267">
        <ele>597.344282</ele>
        <time>2022-09-24T16:07:44.691Z</time>
      </trkpt>
      <trkpt lat="48.037383" lon="10.874267">
        <ele>597.344282</ele>
        <time>2022-09-24T16:07:44.767Z</time>
      </trkpt>
      <trkpt lat="48.037284" lon="10.874421">
        <ele>597.311918</ele>
        <time>2022-09-24T16:07:59.078Z</time>
      </trkpt>
      <trkpt lat="48.037154" lon="10.874954">
        <ele>597.225969</ele>
        <time>2022-09-24T16:08:37.385Z</time>
      </trkpt>
      <trkpt lat="48.036864" lon="10.874821">
        <ele>597.157245</ele>
        <time>2022-09-24T16:09:08.078Z</time>
      </trkpt>
      <trkpt lat="48.036429" lon="10.874444">
        <ele>597.139705</ele>
        <time>2022-09-24T16:09:58.789Z</time>
      </trkpt>
      <trkpt lat="48.036354" lon="10.874122">
        <ele>597.242696</ele>
        <time>2022-09-24T16:10:21.773Z</time>
      </trkpt>
      <trkpt lat="48.035313" lon="10.874856">
        <ele>597.762580</ele>
        <time>2022-09-24T16:12:18.992Z</time>
      </trkpt>
      <trkpt lat="48.034918" lon="10.875775">
        <ele>598.382313</ele>
        <time>2022-09-24T16:13:35.031Z</time>
      </trkpt>
      <trkpt lat="48.034253" lon="10.876242">
        <ele>599.184249</ele>
        <time>2022-09-24T16:14:52.114Z</time>
      </trkpt>
      <trkpt lat="48.034469" lon="10.876550">
        <ele>599.510026</ele>
        <time>2022-09-24T16:15:23.532Z</time>
      </trkpt>
      <trkpt lat="48.035401" lon="10.877158">
        <ele>599.434726</ele>
        <time>2022-09-24T16:17:06.919Z</time>
      </trkpt>
      <trkpt lat="48.035401" lon="10.877158">
        <ele>599.434726</ele>
        <time>2022-09-24T16:17:06.988Z</time>
      </trkpt>
      <trkpt lat="48.036033" lon="10.877544">
        <ele>599.030817</ele>
        <time>2022-09-24T16:18:16.930Z</time>
      </trkpt>
      <trkpt lat="48.037021" lon="10.877954">
        <ele>598.134057</ele>
        <time>2022-09-24T16:20:03.042Z</time>
      </trkpt>
      <trkpt lat="48.037085" lon="10.877843">
        <ele>598.029728</ele>
        <time>2022-09-24T16:20:13.113Z</time>
      </trkpt>
      <trkpt lat="48.037120" lon="10.877587">
        <ele>597.843735</ele>
        <time>2022-09-24T16:20:31.361Z</time>
      </trkpt>
      <trkpt lat="48.037864" lon="10.877886">
        <ele>597.023615</ele>
        <time>2022-09-24T16:21:50.234Z</time>
      </trkpt>
      <trkpt lat="48.038292" lon="10.877764">
        <ele>597.333452</ele>
        <time>2022-09-24T16:22:34.528Z</time>
      </trkpt>
      <trkpt lat="48.038395" lon="10.877552">
        <ele>597.608535</ele>
        <time>2022-09-24T16:22:52.973Z</time>
      </trkpt>
      <trkpt lat="48.039033" lon="10.877840">
        <ele>598.654779</ele>
        <time>2022-09-24T16:24:04.810Z</time>
      </trkpt>
      <trkpt lat="48.039289" lon="10.877871">
        <ele>599.057997</ele>
        <time>2022-09-24T16:24:32.711Z</time>
      </trkpt>
      <trkpt lat="48.039552" lon="10.877903">
        <ele>599.472252</ele>
        <time>2022-09-24T16:25:00.652Z</time>
      </trkpt>
      <trkpt lat="48.039829" lon="10.877848">
        <ele>599.843369</ele>
        <time>2022-09-24T16:25:30.912Z</time>
      </trkpt>
      <trkpt lat="48.040671" lon="10.877369">
        <ele>600.812717</ele>
        <time>2022-09-24T16:27:07.332Z</time>
      </trkpt>
      <trkpt lat="48.040930" lon="10.877204">
        <ele>601.115638</ele>
        <time>2022-09-24T16:27:35.616Z</time>
      </trkpt>
      <trkpt lat="48.040993" lon="10.877200">
        <ele>601.183490</ele>
        <time>2022-09-24T16:27:42.219Z</time>
      </trkpt>
      <trkpt lat="48.041173" lon="10.877190">
        <ele>601.377310</ele>
        <time>2022-09-24T16:28:00.823Z</time>
      </trkpt>
      <trkpt lat="48.041366" lon="10.877228">
        <ele>601.586776</ele>
        <time>2022-09-24T16:28:20.748Z</time>
      </trkpt>
      <trkpt lat="48.041677" lon="10.877275">
        <ele>601.785164</ele>
        <time>2022-09-24T16:28:52.118Z</time>
      </trkpt>
      <trkpt lat="48.041792" lon="10.877107">
        <ele>601.876291</ele>
        <time>2022-09-24T16:29:08.664Z</time>
      </trkpt>
      <trkpt lat="48.041886" lon="10.876853">
        <ele>601.986322</ele>
        <time>2022-09-24T16:29:29.206Z</time>
      </trkpt>
      <trkpt lat="48.041930" lon="10.876681">
        <ele>602.056120</ele>
        <time>2022-09-24T16:29:41.750Z</time>
      </trkpt>
      <trkpt lat="48.041970" lon="10.876511">
        <ele>602.124424</ele>
        <time>2022-09-24T16:29:53.936Z</time>
      </trkpt>
      <trkpt lat="48.042593" lon="10.876876">
        <ele>602.503715</ele>
        <time>2022-09-24T16:31:03.643Z</time>
      </trkpt>
      <trkpt lat="48.043029" lon="10.877000">
        <ele>603.097267</ele>
        <time>2022-09-24T16:31:48.937Z</time>
      </trkpt>
      <trkpt lat="48.043381" lon="10.877055">
        <ele>603.956736</ele>
        <time>2022-09-24T16:32:26.966Z</time>
      </trkpt>
      <trkpt lat="48.044089" lon="10.877160">
        <ele>605.684516</ele>
        <time>2022-09-24T16:33:48.061Z</time>
      </trkpt>
      <trkpt lat="48.044652" lon="10.877109">
        <ele>607.001333</ele>
        <time>2022-09-24T16:34:49.653Z</time>
      </trkpt>
      <trkpt lat="48.045126" lon="10.876943">
        <ele>606.403602</ele>
        <time>2022-09-24T16:35:39.427Z</time>
      </trkpt>
      <trkpt lat="48.045344" lon="10.876880">
        <ele>606.130985</ele>
        <time>2022-09-24T16:36:01.858Z</time>
      </trkpt>
      <trkpt lat="48.045803" lon="10.876822">
        <ele>605.565403</ele>
        <time>2022-09-24T16:36:49.060Z</time>
      </trkpt>
      <trkpt lat="48.046211" lon="10.876601">
        <ele>605.032614</ele>
        <time>2022-09-24T16:37:34.997Z</time>
      </trkpt>
      <trkpt lat="48.046409" lon="10.876577">
        <ele>604.713657</ele>
        <time>2022-09-24T16:37:56.419Z</time>
      </trkpt>
      <trkpt lat="48.046420" lon="10.876574">
        <ele>604.653020</ele>
        <time>2022-09-24T16:37:57.682Z</time>
      </trkpt>
      <trkpt lat="48.046443" lon="10.876568">
        <ele>604.526406</ele>
        <time>2022-09-24T16:38:00.196Z</time>
      </trkpt>
      <trkpt lat="48.046695" lon="10.876442">
        <ele>603.085465</ele>
        <time>2022-09-24T16:38:29.527Z</time>
      </trkpt>
      <trkpt lat="48.046886" lon="10.876555">
        <ele>601.971583</ele>
        <time>2022-09-24T16:38:52.167Z</time>
      </trkpt>
      <trkpt lat="48.046948" lon="10.876534">
        <ele>601.626840</ele>
        <time>2022-09-24T16:38:59.533Z</time>
      </trkpt>
      <trkpt lat="48.046981" lon="10.876520">
        <ele>601.440820</ele>
        <time>2022-09-24T16:39:03.440Z</time>
      </trkpt>
      <trkpt lat="48.047086" lon="10.876471">
        <ele>600.844330</ele>
        <time>2022-09-24T16:39:15.781Z</time>
      </trkpt>
      <trkpt lat="48.047289" lon="10.876369">
        <ele>599.682997</ele>
        <time>2022-09-24T16:39:40.037Z</time>
      </trkpt>
      <trkpt lat="48.047506" lon="10.876285">
        <ele>598.467424</ele>
        <time>2022-09-24T16:40:05.504Z</time>
      </trkpt>
      <trkpt lat="48.047804" lon="10.876065">
        <ele>596.665245</ele>
        <time>2022-09-24T16:40:42.766Z</time>
      </trkpt>
      <trkpt lat="48.047753" lon="10.875960">
        <ele>596.194712</ele>
        <time>2022-09-24T16:40:52.343Z</time>
      </trkpt>
      <trkpt lat="48.047707" lon="10.875841">
        <ele>595.696360</ele>
        <time>2022-09-24T16:41:02.684Z</time>
      </trkpt>
      <trkpt lat="48.047748" lon="10.875822">
        <ele>595.463588</ele>
        <time>2022-09-24T16:41:07.556Z</time>
      </trkpt>
      <trkpt lat="48.047816" lon="10.875790">
        <ele>595.077001</ele>
        <time>2022-09-24T16:41:15.351Z</time>
      </trkpt>
      <trkpt lat="48.047849" lon="10.875764">
        <ele>594.924923</ele>
        <time>2022-09-24T16:41:19.409Z</time>
      </trkpt>
      <trkpt lat="48.047923" lon="10.875739">
        <ele>594.627115</ele>
        <time>2022-09-24T16:41:27.613Z</time>
      </trkpt>
      <trkpt lat="48.048160" lon="10.875677">
        <ele>593.682637</ele>
        <time>2022-09-24T16:41:54.148Z</time>
      </trkpt>
      <trkpt lat="48.048445" lon="10.875590">
        <ele>592.540794</ele>
        <time>2022-09-24T16:42:26.235Z</time>
      </trkpt>
      <trkpt lat="48.048662" lon="10.875494">
        <ele>591.652475</ele>
        <time>2022-09-24T16:42:50.934Z</time>
      </trkpt>
      <trkpt lat="48.049242" lon="10.875274">
        <ele>589.303593</ele>
        <time>2022-09-24T16:43:55.134Z</time>
      </trkpt>
      <trkpt lat="48.049440" lon="10.875269">
        <ele>588.526221</ele>
        <time>2022-09-24T16:44:15.891Z</time>
      </trkpt>
      <trkpt lat="48.049454" lon="10.875224">
        <ele>588.395970</ele>
        <time>2022-09-24T16:44:19.406Z</time>
      </trkpt>
      <trkpt lat="48.049478" lon="10.875134">
        <ele>588.141694</ele>
        <time>2022-09-24T16:44:26.271Z</time>
      </trkpt>
      <trkpt lat="48.049421" lon="10.874944">
        <ele>587.860364</ele>
        <time>2022-09-24T16:44:40.926Z</time>
      </trkpt>
      <trkpt lat="48.049430" lon="10.874883">
        <ele>587.804942</ele>
        <time>2022-09-24T16:44:45.278Z</time>
      </trkpt>
      <trkpt lat="48.049620" lon="10.874640">
        <ele>587.473183</ele>
        <time>2022-09-24T16:45:11.394Z</time>
      </trkpt>
      <trkpt lat="48.050327" lon="10.874472">
        <ele>586.523111</ele>
        <time>2022-09-24T16:46:24.989Z</time>
      </trkpt>
      <trkpt lat="48.050327" lon="10.874472">
        <ele>586.523111</ele>
        <time>2022-09-24T16:46:25.146Z</time>
      </trkpt>
      <trkpt lat="48.050327" lon="10.874472">
        <ele>586.523111</ele>
        <time>2022-09-24T16:46:25.255Z</time>
      </trkpt>
      <trkpt lat="48.050327" lon="10.874410">
        <ele>586.468106</ele>
        <time>2022-09-24T16:46:29.487Z</time>
      </trkpt>
      <trkpt lat="48.050614" lon="10.874344">
        <ele>586.082735</ele>
        <time>2022-09-24T16:46:59.316Z</time>
      </trkpt>
      <trkpt lat="48.050640" lon="10.874361">
        <ele>586.045076</ele>
        <time>2022-09-24T16:47:02.167Z</time>
      </trkpt>
      <trkpt lat="48.050845" lon="10.874385">
        <ele>585.772175</ele>
        <time>2022-09-24T16:47:22.929Z</time>
      </trkpt>
      <trkpt lat="48.050881" lon="10.874443">
        <ele>585.701958</ele>
        <time>2022-09-24T16:47:28.326Z</time>
      </trkpt>
      <trkpt lat="48.050950" lon="10.874527">
        <ele>585.608442</ele>
        <time>2022-09-24T16:47:37.334Z</time>
      </trkpt>
      <trkpt lat="48.051693" lon="10.874648">
        <ele>585.597989</ele>
        <time>2022-09-24T16:48:52.165Z</time>
      </trkpt>
      <trkpt lat="48.051719" lon="10.874653">
        <ele>585.597622</ele>
        <time>2022-09-24T16:48:54.905Z</time>
      </trkpt>
      <trkpt lat="48.051748" lon="10.874412">
        <ele>585.595333</ele>
        <time>2022-09-24T16:49:11.320Z</time>
      </trkpt>
      <trkpt lat="48.051820" lon="10.874298">
        <ele>585.593867</ele>
        <time>2022-09-24T16:49:21.869Z</time>
      </trkpt>
      <trkpt lat="48.052053" lon="10.874329">
        <ele>585.590595</ele>
        <time>2022-09-24T16:49:45.619Z</time>
      </trkpt>
      <trkpt lat="48.052156" lon="10.874348">
        <ele>585.589143</ele>
        <time>2022-09-24T16:49:56.054Z</time>
      </trkpt>
      <trkpt lat="48.052566" lon="10.874430">
        <ele>585.576173</ele>
        <time>2022-09-24T16:50:37.987Z</time>
      </trkpt>
      <trkpt lat="48.052632" lon="10.874440">
        <ele>585.540012</ele>
        <time>2022-09-24T16:50:44.720Z</time>
      </trkpt>
      <trkpt lat="48.052658" lon="10.874444">
        <ele>585.525765</ele>
        <time>2022-09-24T16:50:47.345Z</time>
      </trkpt>
      <trkpt lat="48.052889" lon="10.874520">
        <ele>585.396838</ele>
        <time>2022-09-24T16:51:11.157Z</time>
      </trkpt>
      <trkpt lat="48.053036" lon="10.874615">
        <ele>585.309552</ele>
        <time>2022-09-24T16:51:27.204Z</time>
      </trkpt>
      <trkpt lat="48.053198" lon="10.874721">
        <ele>585.213170</ele>
        <time>2022-09-24T16:51:45.204Z</time>
      </trkpt>
      <trkpt lat="48.053290" lon="10.874396">
        <ele>585.084570</ele>
        <time>2022-09-24T16:52:09.090Z</time>
      </trkpt>
      <trkpt lat="48.053340" lon="10.873957">
        <ele>584.922309</ele>
        <time>2022-09-24T16:52:39.358Z</time>
      </trkpt>
      <trkpt lat="48.053389" lon="10.873854">
        <ele>584.876245</ele>
        <time>2022-09-24T16:52:47.936Z</time>
      </trkpt>
      <trkpt lat="48.053818" lon="10.873277">
        <ele>584.560830</ele>
        <time>2022-09-24T16:53:47.008Z</time>
      </trkpt>
      <trkpt lat="48.053868" lon="10.873217">
        <ele>584.525081</ele>
        <time>2022-09-24T16:53:53.572Z</time>
      </trkpt>
      <trkpt lat="48.054056" lon="10.873456">
        <ele>584.387486</ele>
        <time>2022-09-24T16:54:18.673Z</time>
      </trkpt>
      <trkpt lat="48.054182" lon="10.873615">
        <ele>584.295552</ele>
        <time>2022-09-24T16:54:35.404Z</time>
      </trkpt>
      <trkpt lat="48.054411" lon="10.874098">
        <ele>584.074794</ele>
        <time>2022-09-24T16:55:15.679Z</time>
      </trkpt>
      <trkpt lat="48.054616" lon="10.874703">
        <ele>583.821929</ele>
        <time>2022-09-24T16:56:01.928Z</time>
      </trkpt>
      <trkpt lat="48.054743" lon="10.874946">
        <ele>583.706936</ele>
        <time>2022-09-24T16:56:22.719Z</time>
      </trkpt>
      <trkpt lat="48.054860" lon="10.875153">
        <ele>583.605877</ele>
        <time>2022-09-24T16:56:40.939Z</time>
      </trkpt>
      <trkpt lat="48.054995" lon="10.875691">
        <ele>584.168327</ele>
        <time>2022-09-24T16:57:20.508Z</time>
      </trkpt>
      <trkpt lat="48.054860" lon="10.875153">
        <ele>584.752811</ele>
        <time>2022-09-24T16:58:00.902Z</time>
      </trkpt>
      <trkpt lat="48.054777" lon="10.874617">
        <ele>585.312411</ele>
        <time>2022-09-24T16:58:39.887Z</time>
      </trkpt>
      <trkpt lat="48.055409" lon="10.873768">
        <ele>586.841222</ele>
        <time>2022-09-24T17:00:11.401Z</time>
      </trkpt>
      <trkpt lat="48.055422" lon="10.873789">
        <ele>586.896004</ele>
        <time>2022-09-24T17:00:13.425Z</time>
      </trkpt>
      <trkpt lat="48.055795" lon="10.873544">
        <ele>588.062471</ele>
        <time>2022-09-24T17:00:58.249Z</time>
      </trkpt>
      <trkpt lat="48.056500" lon="10.872498">
        <ele>590.905557</ele>
        <time>2022-09-24T17:02:49.413Z</time>
      </trkpt>
      <trkpt lat="48.056617" lon="10.872266">
        <ele>591.461796</ele>
        <time>2022-09-24T17:03:10.270Z</time>
      </trkpt>
      <trkpt lat="48.056731" lon="10.872043">
        <ele>591.892581</ele>
        <time>2022-09-24T17:03:30.938Z</time>
      </trkpt>
      <trkpt lat="48.056787" lon="10.871527">
        <ele>592.684881</ele>
        <time>2022-09-24T17:04:08.915Z</time>
      </trkpt>
      <trkpt lat="48.056858" lon="10.871606">
        <ele>592.885520</ele>
        <time>2022-09-24T17:04:18.438Z</time>
      </trkpt>
      <trkpt lat="48.056869" lon="10.871223">
        <ele>593.466535</ele>
        <time>2022-09-24T17:04:46.559Z</time>
      </trkpt>
      <trkpt lat="48.056944" lon="10.871203">
        <ele>593.639282</ele>
        <time>2022-09-24T17:04:54.805Z</time>
      </trkpt>
      <trkpt lat="48.057029" lon="10.870831">
        <ele>594.235124</ele>
        <time>2022-09-24T17:05:23.477Z</time>
      </trkpt>
      <trkpt lat="48.057159" lon="10.870294">
        <ele>595.100744</ele>
        <time>2022-09-24T17:06:04.676Z</time>
      </trkpt>
      <trkpt lat="48.057178" lon="10.870173">
        <ele>595.289125</ele>
        <time>2022-09-24T17:06:13.469Z</time>
      </trkpt>
      <trkpt lat="48.057183" lon="10.870081">
        <ele>595.429020</ele>
        <time>2022-09-24T17:06:20.020Z</time>
      </trkpt>
      <trkpt lat="48.057252" lon="10.870081">
        <ele>595.566405</ele>
        <time>2022-09-24T17:06:27.046Z</time>
      </trkpt>
      <trkpt lat="48.057170" lon="10.869361">
        <ele>595.607111</ele>
        <time>2022-09-24T17:07:17.699Z</time>
      </trkpt>
      <trkpt lat="48.057154" lon="10.869239">
        <ele>595.614040</ele>
        <time>2022-09-24T17:07:26.213Z</time>
      </trkpt>
      <trkpt lat="48.057126" lon="10.869058">
        <ele>595.624394</ele>
        <time>2022-09-24T17:07:38.648Z</time>
      </trkpt>
      <trkpt lat="48.057182" lon="10.868610">
        <ele>595.649795</ele>
        <time>2022-09-24T17:08:09.170Z</time>
      </trkpt>
      <trkpt lat="48.057331" lon="10.868415">
        <ele>595.666302</ele>
        <time>2022-09-24T17:08:29.175Z</time>
      </trkpt>
      <trkpt lat="48.058092" lon="10.868133">
        <ele>595.715654</ele>
        <time>2022-09-24T17:09:48.886Z</time>
      </trkpt>
      <trkpt lat="48.058490" lon="10.867995">
        <ele>595.715654</ele>
        <time>2022-09-24T17:10:30.639Z</time>
      </trkpt>
      <trkpt lat="48.058875" lon="10.867823">
        <ele>595.715654</ele>
        <time>2022-09-24T17:11:11.578Z</time>
      </trkpt>
      <trkpt lat="48.058980" lon="10.867933">
        <ele>595.715654</ele>
        <time>2022-09-24T17:11:24.656Z</time>
      </trkpt>
    </trkseg>
  </trk>
</gpx>